Time;durP1;ratioP1;P1;durP2;ratioP2;P2;SDS_P1;SDS_P2;PMS_P1;PMS_P2;Temp;Humidity;BMP_temperature;BMP_pressure;BME280_temperature;BME280_humidity;BME280_pressure;Samples;Min_cycle;Max_cycle;Signal;HPM_P1;HPM_P2
2022/06/09 00:00:13;;;;;;;3.23;2.70;;;20.80;93.40;;;;;;5071714;28;20741;-68
2022/06/09 00:02:45;;;;;;;5.43;3.10;;;20.80;93.50;;;;;;5056333;28;20321;-67
2022/06/09 00:05:13;;;;;;;5.43;2.70;;;20.80;93.50;;;;;;5051571;28;20571;-68
2022/06/09 00:07:41;;;;;;;4.47;2.80;;;20.80;93.60;;;;;;5051467;28;20233;-68
2022/06/09 00:10:11;;;;;;;5.50;3.43;;;20.80;93.60;;;;;;5051188;28;20211;-67
2022/06/09 00:12:39;;;;;;;4.73;3.43;;;20.70;93.70;;;;;;5065668;28;20282;-66
2022/06/09 00:15:08;;;;;;;4.47;3.10;;;20.70;93.70;;;;;;5071516;28;20712;-68
2022/06/09 00:17:35;;;;;;;6.07;3.20;;;20.70;93.80;;;;;;5071354;28;20295;-69
2022/06/09 00:20:05;;;;;;;3.50;2.80;;;20.60;93.80;;;;;;5071646;28;20646;-66
2022/06/09 00:22:31;;;;;;;3.87;3.13;;;20.60;93.90;;;;;;5069516;28;20289;-67
2022/06/09 00:24:58;;;;;;;3.67;2.97;;;20.60;93.90;;;;;;5069301;28;20587;-67
2022/06/09 00:27:25;;;;;;;3.50;2.87;;;20.60;94.00;;;;;;5070770;28;20213;-67
2022/06/09 00:29:52;;;;;;;3.40;2.83;;;20.50;94.00;;;;;;5071678;28;20291;-68
2022/06/09 00:32:19;;;;;;;6.33;3.10;;;20.50;94.10;;;;;;5056842;28;20220;-67
2022/06/09 00:34:46;;;;;;;3.60;3.10;;;20.50;94.50;;;;;;5051435;28;20292;-67
2022/06/09 00:37:14;;;;;;;5.43;3.27;;;20.50;94.20;;;;;;5051161;28;20236;-68
2022/06/09 00:39:41;;;;;;;4.67;2.97;;;20.40;94.20;;;;;;5050975;28;20311;-67
2022/06/09 00:42:09;;;;;;;5.40;2.80;;;20.40;94.30;;;;;;5062884;28;20623;-68
2022/06/09 00:44:38;;;;;;;5.70;3.30;;;20.40;94.30;;;;;;5071002;28;20224;-67
2022/06/09 00:47:09;;;;;;;3.70;2.83;;;20.40;94.70;;;;;;5070785;28;20304;-67
2022/06/09 00:49:41;;;;;;;6.17;3.13;;;20.40;94.40;;;;;;5071146;28;20247;-69
2022/06/09 00:52:12;;;;;;;5.77;3.03;;;20.40;94.50;;;;;;5051825;28;20284;-66
2022/06/09 00:54:44;;;;;;;5.40;3.07;;;20.40;94.50;;;;;;5050910;28;20186;-68
2022/06/09 00:57:14;;;;;;;12.03;3.83;;;20.30;95.00;;;;;;5050900;28;20196;-67
2022/06/09 00:59:43;;;;;;;6.07;3.10;;;20.30;94.60;;;;;;5051040;28;20212;-69
2022/06/09 01:02:13;;;;;;;3.83;3.10;;;20.30;94.70;;;;;;5069324;28;20295;-69
2022/06/09 01:04:40;;;;;;;4.60;3.37;;;20.30;94.70;;;;;;5070586;28;20333;-67
2022/06/09 01:07:11;;;;;;;4.53;3.23;;;20.30;94.80;;;;;;5070814;28;20273;-68
2022/06/09 01:09:40;;;;;;;3.87;3.00;;;20.30;94.80;;;;;;5071130;28;20288;-68
2022/06/09 01:12:23;;;;;;;4.50;3.17;;;20.30;94.90;;;;;;5051954;28;20236;-69
2022/06/09 01:14:50;;;;;;;5.97;3.33;;;20.30;94.90;;;;;;5051018;28;20195;-68
2022/06/09 01:17:27;;;;;;;4.53;3.40;;;20.20;94.90;;;;;;5050535;28;20254;-67
2022/06/09 01:20:06;;;;;;;4.50;3.10;;;20.30;95.00;;;;;;5050813;28;20192;-68
2022/06/09 01:22:59;;;;;;;4.53;3.23;;;20.20;95.00;;;;;;5050464;28;20727;-67
2022/06/09 01:26:10;;;;;;;4.07;3.30;;;20.20;95.40;;;;;;5050445;28;20231;-67
2022/06/09 01:29:06;;;;;;;4.77;3.13;;;20.20;95.40;;;;;;5050993;28;20193;-66
2022/06/09 01:31:41;;;;;;;5.00;3.53;;;20.20;95.20;;;;;;5061960;28;20278;-67
2022/06/09 01:34:16;;;;;;;7.63;3.70;;;20.20;95.70;;;;;;5067919;28;20211;-67
2022/06/09 01:36:50;;;;;;;6.77;4.07;;;20.10;95.80;;;;;;5059332;28;20279;-67
2022/06/09 01:39:17;;;;;;;5.57;3.83;;;20.00;96.30;;;;;;5054425;28;20606;-67
2022/06/09 01:41:48;;;;;;;7.57;4.33;;;19.90;96.30;;;;;;5054462;28;20295;-68
2022/06/09 01:44:16;;;;;;;9.03;3.73;;;19.80;96.40;;;;;;5056220;28;20201;-67
2022/06/09 01:46:46;;;;;;;4.77;4.00;;;19.80;96.30;;;;;;5073795;28;20212;-67
2022/06/09 01:49:17;;;;;;;7.37;3.80;;;19.80;96.20;;;;;;5074027;28;20205;-67
2022/06/09 01:51:46;;;;;;;7.33;4.33;;;19.80;96.20;;;;;;5073997;28;20282;-68
2022/06/09 01:54:17;;;;;;;7.67;4.70;;;19.80;96.40;;;;;;5071215;28;20492;-68
2022/06/09 01:56:49;;;;;;;7.30;4.50;;;19.70;96.60;;;;;;5053999;28;20598;-69
2022/06/09 01:59:20;;;;;;;7.00;4.33;;;19.70;96.70;;;;;;5054069;28;20630;-68
2022/06/09 02:01:54;;;;;;;12.13;4.87;;;19.60;96.70;;;;;;5054926;28;20197;-67
2022/06/09 02:04:24;;;;;;;6.70;4.43;;;19.60;96.80;;;;;;5071958;28;20245;-68
2022/06/09 02:06:53;;;;;;;6.63;3.83;;;19.70;96.80;;;;;;5073791;28;20547;-67
2022/06/09 02:09:20;;;;;;;9.57;3.70;;;19.70;96.90;;;;;;5074177;28;20526;-67
2022/06/09 02:11:50;;;;;;;7.30;4.20;;;19.70;96.90;;;;;;5073768;28;20297;-67
2022/06/09 02:14:18;;;;;;;7.23;4.13;;;19.70;97.20;;;;;;5055407;28;20350;-67
2022/06/09 02:16:45;;;;;;;5.47;3.47;;;19.70;97.30;;;;;;5053680;28;20288;-68
2022/06/09 02:19:14;;;;;;;8.03;3.70;;;19.70;97.20;;;;;;5053245;28;20214;-67
2022/06/09 02:21:41;;;;;;;4.33;3.50;;;19.80;97.30;;;;;;5053586;28;20212;-68
2022/06/09 02:24:08;;;;;;;7.03;3.77;;;19.80;97.30;;;;;;5069162;28;20290;-67
2022/06/09 02:26:36;;;;;;;5.90;3.53;;;19.80;97.20;;;;;;5073221;28;20784;-68
2022/06/09 02:29:03;;;;;;;5.43;3.57;;;19.90;97.20;;;;;;5073239;28;20613;-67
2022/06/09 02:31:30;;;;;;;6.90;4.07;;;19.90;97.30;;;;;;5073241;28;20204;-67
2022/06/09 02:33:57;;;;;;;8.10;4.50;;;19.90;97.50;;;;;;5055493;28;20206;-67
2022/06/09 02:36:26;;;;;;;6.70;4.23;;;19.90;97.70;;;;;;5053283;28;20202;-67
2022/06/09 02:38:53;;;;;;;5.40;3.83;;;20.00;97.80;;;;;;5057697;28;20240;-66
2022/06/09 02:41:20;;;;;;;8.63;4.07;;;20.00;97.70;;;;;;5052783;28;20201;-69
2022/06/09 02:43:47;;;;;;;6.23;4.33;;;20.10;97.60;;;;;;5052980;28;20619;-67
2022/06/09 02:46:14;;;;;;;8.93;4.50;;;20.20;97.90;;;;;;5052772;28;20226;-67
2022/06/09 02:48:41;;;;;;;6.43;4.23;;;20.20;98.50;;;;;;5051977;28;20237;-69
2022/06/09 02:51:19;;;;;;;5.63;4.20;;;20.30;98.40;;;;;;5072904;28;20204;-68
2022/06/09 02:53:48;;;;;;;7.67;4.27;;;20.40;98.40;;;;;;5072771;28;20200;-67
2022/06/09 02:56:15;;;;;;;8.30;4.37;;;20.50;98.70;;;;;;5072704;28;20202;-68
2022/06/09 02:58:42;;;;;;;6.37;4.20;;;20.60;98.60;;;;;;5072520;28;20213;-68
2022/06/09 03:01:09;;;;;;;7.20;4.70;;;20.60;98.60;;;;;;5052301;28;20202;-68
2022/06/09 03:03:36;;;;;;;8.80;4.20;;;20.60;98.50;;;;;;5052315;28;20328;-68
2022/06/09 03:06:03;;;;;;;6.47;4.17;;;20.70;98.50;;;;;;5052078;28;20229;-68
2022/06/09 03:08:30;;;;;;;6.43;4.00;;;20.70;98.50;;;;;;5052550;28;20760;-68
2022/06/09 03:10:58;;;;;;;6.13;3.77;;;20.80;98.50;;;;;;5070459;28;20283;-68
2022/06/09 03:13:25;;;;;;;7.60;3.80;;;20.80;98.40;;;;;;5072303;28;20205;-67
2022/06/09 03:15:52;;;;;;;6.73;4.20;;;20.90;98.50;;;;;;5072111;28;20232;-66
2022/06/09 03:18:19;;;;;;;5.47;4.30;;;20.80;98.60;;;;;;5072126;28;20206;-67
2022/06/09 03:20:46;;;;;;;9.27;4.27;;;20.80;98.70;;;;;;5055282;28;20289;-67
2022/06/09 03:23:14;;;;;;;5.83;4.30;;;20.80;98.90;;;;;;5052597;28;20671;-67
2022/06/09 03:25:42;;;;;;;7.07;4.67;;;20.70;99.30;;;;;;5052115;28;20225;-69
2022/06/09 03:28:11;;;;;;;5.63;4.10;;;20.70;99.50;;;;;;5052337;28;20600;-68
2022/06/09 03:30:37;;;;;;;8.43;4.37;;;20.70;99.40;;;;;;5059502;28;20193;-69
2022/06/09 03:33:04;;;;;;;7.00;4.63;;;20.70;99.50;;;;;;5051853;28;20860;-68
2022/06/09 03:35:32;;;;;;;9.57;4.97;;;20.80;99.30;;;;;;5052331;28;20205;-68
2022/06/09 03:37:59;;;;;;;8.23;5.10;;;20.80;99.00;;;;;;5051835;28;20212;-69
2022/06/09 03:40:28;;;;;;;7.80;4.60;;;20.80;98.90;;;;;;5067612;28;20553;-66
2022/06/09 03:42:55;;;;;;;7.77;4.97;;;20.90;98.90;;;;;;5071453;28;20204;-70
2022/06/09 03:45:23;;;;;;;7.10;4.20;;;21.00;98.90;;;;;;5070106;28;20662;-67
2022/06/09 03:47:50;;;;;;;9.67;4.60;;;21.10;98.80;;;;;;5067549;28;20207;-69
2022/06/09 03:50:20;;;;;;;7.50;4.77;;;21.20;98.70;;;;;;5051956;28;20608;-69
2022/06/09 03:52:47;;;;;;;9.30;5.17;;;21.20;98.80;;;;;;5051975;28;20249;-68
2022/06/09 03:55:15;;;;;;;7.87;4.90;;;21.20;98.90;;;;;;5052021;28;20657;-70
2022/06/09 03:57:42;;;;;;;7.53;5.23;;;21.30;99.30;;;;;;5061064;28;20573;-66
2022/06/09 04:00:13;;;;;;;13.10;5.70;;;21.30;98.90;;;;;;5071797;28;20204;-68
2022/06/09 04:02:41;;;;;;;5.70;4.50;;;21.40;98.80;;;;;;5071569;28;20729;-67
2022/06/09 04:05:09;;;;;;;10.70;4.97;;;21.50;98.90;;;;;;5071654;28;20275;-69
2022/06/09 04:07:36;;;;;;;6.30;4.80;;;21.60;98.90;;;;;;5062634;28;20300;-68
2022/06/09 04:10:05;;;;;;;6.23;4.00;;;21.70;99.20;;;;;;5051489;28;20775;-66
2022/06/09 04:12:32;;;;;;;10.17;4.03;;;21.80;98.70;;;;;;5051662;28;20225;-67
2022/06/09 04:14:59;;;;;;;8.17;4.10;;;21.90;98.60;;;;;;5051384;28;20226;-69
2022/06/09 04:17:26;;;;;;;9.53;3.90;;;22.00;98.80;;;;;;5057449;28;20192;-68
2022/06/09 04:19:54;;;;;;;8.80;4.33;;;22.10;98.80;;;;;;5071224;28;20631;-69
2022/06/09 04:22:21;;;;;;;6.23;4.30;;;22.20;99.00;;;;;;5063431;28;20315;-70
2022/06/09 04:24:49;;;;;;;5.03;3.57;;;22.30;99.00;;;;;;5052291;28;20259;-71
2022/06/09 04:27:15;;;;;;;5.37;3.47;;;22.40;98.80;;;;;;5051552;28;20739;-68
2022/06/09 04:29:43;;;;;;;6.83;3.37;;;22.50;98.40;;;;;;5051386;28;20551;-69
2022/06/09 04:32:10;;;;;;;4.73;3.00;;;22.60;97.70;;;;;;5056409;28;20650;-69
2022/06/09 04:34:37;;;;;;;10.53;3.10;;;22.70;97.00;;;;;;5071014;28;20208;-68
2022/06/09 04:37:05;;;;;;;7.97;3.30;;;22.80;96.70;;;;;;5071441;28;20253;-71
2022/06/09 04:39:32;;;;;;;5.93;3.00;;;22.90;96.30;;;;;;5071403;28;20260;-71
2022/06/09 04:41:59;;;;;;;6.90;2.97;;;23.00;96.10;;;;;;5067707;28;20625;-69
2022/06/09 04:44:26;;;;;;;9.10;3.00;;;23.10;96.00;;;;;;5051045;28;20208;-71
2022/06/09 04:46:53;;;;;;;6.77;2.60;;;23.20;95.90;;;;;;5051032;28;20247;-69
2022/06/09 04:49:20;;;;;;;6.63;4.20;;;23.30;95.80;;;;;;5051242;28;20211;-68
2022/06/09 04:51:47;;;;;;;6.40;3.07;;;23.40;95.70;;;;;;5052332;28;20578;-68
2022/06/09 04:54:15;;;;;;;9.90;3.30;;;23.50;95.30;;;;;;5069100;28;20203;-70
2022/06/09 04:56:42;;;;;;;6.37;2.80;;;23.60;95.00;;;;;;5071171;28;20641;-69
2022/06/09 04:59:09;;;;;;;5.17;2.70;;;23.80;94.80;;;;;;5071378;28;20599;-68
2022/06/09 05:01:36;;;;;;;2.83;2.37;;;23.80;94.40;;;;;;5070465;28;20206;-69
2022/06/09 05:04:05;;;;;;;3.40;2.50;;;24.00;94.10;;;;;;5069500;28;20225;-68
2022/06/09 05:06:31;;;;;;;5.83;2.47;;;24.10;93.70;;;;;;5070556;28;20230;-68
2022/06/09 05:08:58;;;;;;;6.37;3.27;;;24.20;93.40;;;;;;5071212;28;20209;-70
2022/06/09 05:11:27;;;;;;;6.63;2.60;;;24.30;93.30;;;;;;5071533;28;20306;-68
2022/06/09 05:13:54;;;;;;;3.77;2.57;;;24.40;93.10;;;;;;5055180;28;20207;-68
2022/06/09 05:16:21;;;;;;;3.93;2.57;;;24.50;92.50;;;;;;5054339;28;20577;-69
2022/06/09 05:18:48;;;;;;;2.73;2.00;;;24.60;92.40;;;;;;5055414;28;20199;-69
2022/06/09 05:21:15;;;;;;;2.20;2.00;;;24.70;91.90;;;;;;5054680;28;20194;-69
2022/06/09 05:23:42;;;;;;;2.73;2.07;;;24.80;91.40;;;;;;5074485;28;20218;-68
2022/06/09 05:26:09;;;;;;;4.27;2.40;;;24.90;90.70;;;;;;5074334;28;20343;-68
2022/06/09 05:28:37;;;;;;;4.47;2.60;;;25.00;90.20;;;;;;5058518;28;20210;-68
2022/06/09 05:31:04;;;;;;;3.07;2.47;;;25.10;90.20;;;;;;5054427;28;20636;-67
2022/06/09 05:33:31;;;;;;;2.90;2.43;;;25.20;90.20;;;;;;5054281;28;20575;-67
2022/06/09 05:36:00;;;;;;;5.77;2.50;;;25.30;90.20;;;;;;5063992;28;20278;-67
2022/06/09 05:46:44;;;;;;;7.43;2.30;;;25.70;87.20;;;;;;5053684;28;20213;-69
2022/06/09 05:49:11;;;;;;;8.93;2.40;;;25.70;87.50;;;;;;5059718;28;20243;-70
2022/06/09 05:51:38;;;;;;;6.63;2.50;;;25.80;87.90;;;;;;5074531;28;20209;-67
2022/06/09 05:54:05;;;;;;;10.03;2.93;;;25.90;87.40;;;;;;5074083;28;20294;-68
2022/06/09 05:56:32;;;;;;;5.95;2.10;;;26.00;87.00;;;;;;5073446;28;20196;-70
2022/06/09 05:59:01;;;;;;;4.07;1.90;;;26.10;86.30;;;;;;5072346;28;20566;-70
2022/06/09 06:01:28;;;;;;;3.67;2.10;;;26.20;85.30;;;;;;5061609;28;20296;-69
2022/06/09 06:03:55;;;;;;;5.72;1.58;;;26.30;85.00;;;;;;5053385;28;20332;-67
2022/06/09 06:06:37;;;;;;;3.28;1.58;;;26.30;84.80;;;;;;5054258;28;20241;-71
2022/06/09 06:09:07;;;;;;;7.13;2.25;;;26.40;84.10;;;;;;5057450;28;20237;-68
2022/06/09 06:11:36;;;;;;;6.63;2.20;;;26.50;84.00;;;;;;5072962;28;20191;-70
2022/06/09 06:14:06;;;;;;;9.48;2.20;;;26.60;83.60;;;;;;5071087;28;20673;-68
2022/06/09 06:16:32;;;;;;;4.93;1.67;;;26.60;82.40;;;;;;5053568;28;20548;-67
2022/06/09 06:18:59;;;;;;;4.68;1.77;;;26.70;81.20;;;;;;5053643;28;20226;-67
2022/06/09 06:21:27;;;;;;;3.00;1.70;;;26.80;81.80;;;;;;5053347;28;20736;-67
2022/06/09 06:23:55;;;;;;;9.25;2.05;;;26.80;81.40;;;;;;5053345;28;20644;-70
2022/06/09 06:26:23;;;;;;;4.10;2.20;;;26.90;81.70;;;;;;5067148;28;20271;-68
2022/06/09 06:28:50;;;;;;;3.42;1.58;;;27.00;81.90;;;;;;5073902;28;20264;-72
2022/06/09 06:31:19;;;;;;;2.78;1.50;;;27.00;82.20;;;;;;5072362;28;20254;-69
2022/06/09 06:33:46;;;;;;;5.30;1.52;;;27.10;81.90;;;;;;5073202;28;20662;-68
2022/06/09 06:36:13;;;;;;;2.88;1.80;;;27.10;82.00;;;;;;5073340;28;20198;-69
2022/06/09 06:38:41;;;;;;;6.25;1.85;;;27.20;82.00;;;;;;5073216;28;20234;-69
2022/06/09 06:41:08;;;;;;;3.25;1.70;;;27.30;83.00;;;;;;5053012;28;20244;-69
2022/06/09 06:43:36;;;;;;;3.35;1.80;;;27.30;82.00;;;;;;5052903;28;20314;-68
2022/06/09 06:46:03;;;;;;;2.60;1.67;;;27.40;81.80;;;;;;5052845;28;22183;-70
2022/06/09 06:48:32;;;;;;;3.42;1.95;;;27.40;82.50;;;;;;5052576;28;20243;-68
2022/06/09 06:50:59;;;;;;;2.33;1.73;;;27.50;82.20;;;;;;5053066;28;20813;-68
2022/06/09 06:53:26;;;;;;;9.68;1.90;;;27.50;81.90;;;;;;5057969;28;20254;-69
2022/06/09 06:55:53;;;;;;;4.00;2.08;;;27.60;82.80;;;;;;5059877;28;20475;-68
2022/06/09 06:58:20;;;;;;;4.70;2.17;;;27.70;81.60;;;;;;5052629;28;20293;-69
2022/06/09 07:00:47;;;;;;;6.05;2.20;;;27.70;82.00;;;;;;5052428;28;20233;-69
2022/06/09 07:03:14;;;;;;;4.40;2.30;;;27.80;81.70;;;;;;5052460;28;20346;-69
2022/06/09 07:05:42;;;;;;;14.02;2.72;;;27.80;81.00;;;;;;5070356;28;20653;-69
2022/06/09 07:08:09;;;;;;;8.85;2.78;;;27.90;80.10;;;;;;5056264;28;20224;-68
2022/06/09 07:10:36;;;;;;;8.60;2.42;;;27.90;80.20;;;;;;5052770;28;20210;-69
2022/06/09 07:13:04;;;;;;;5.35;1.80;;;27.90;80.40;;;;;;5051967;28;20210;-69
2022/06/09 07:15:31;;;;;;;3.05;2.03;;;28.00;79.90;;;;;;5051853;28;20206;-68
2022/06/09 07:17:58;;;;;;;4.32;1.83;;;28.00;79.40;;;;;;5059876;28;20232;-69
2022/06/09 07:20:26;;;;;;;2.42;1.63;;;28.10;78.70;;;;;;5070595;28;20201;-67
2022/06/09 07:22:55;;;;;;;3.00;2.20;;;28.10;77.90;;;;;;5063961;28;20570;-69
2022/06/09 07:25:25;;;;;;;13.10;2.70;;;28.10;77.40;;;;;;5061215;28;20207;-68
2022/06/09 07:27:53;;;;;;;9.85;1.65;;;28.10;79.00;;;;;;5055581;28;20223;-67
2022/06/09 07:30:21;;;;;;;5.78;1.77;;;28.10;78.90;;;;;;5071573;28;20261;-68
2022/06/09 07:32:48;;;;;;;28.95;3.88;;;28.20;78.40;;;;;;5072413;28;20245;-67
2022/06/09 07:35:18;;;;;;;11.13;3.00;;;28.30;77.90;;;;;;5083091;28;20278;-67
2022/06/09 07:37:45;;;;;;;4.07;1.90;;;28.30;78.20;;;;;;5061601;28;20246;-69
2022/06/09 07:40:15;;;;;;;2.97;1.77;;;28.40;78.20;;;;;;5073191;28;20291;-69
2022/06/09 07:42:42;;;;;;;3.95;2.20;;;28.50;78.00;;;;;;5051902;28;20207;-69
2022/06/09 07:45:10;;;;;;;3.65;1.90;;;28.50;77.10;;;;;;5064566;28;20254;-70
2022/06/09 07:47:38;;;;;;;44.50;3.65;;;28.50;76.80;;;;;;5060701;28;20311;-70
2022/06/09 07:50:08;;;;;;;3.72;2.03;;;28.50;75.80;;;;;;5051851;28;20211;-67
2022/06/09 07:52:35;;;;;;;4.45;1.77;;;28.50;76.80;;;;;;5074355;28;20290;-67
2022/06/09 07:55:02;;;;;;;7.50;1.75;;;28.60;76.30;;;;;;5072536;28;20292;-68
2022/06/09 07:57:31;;;;;;;4.75;1.50;;;28.60;77.00;;;;;;5052096;28;20215;-70
2022/06/09 07:59:57;;;;;;;17.05;5.53;;;28.60;76.60;;;;;;5053441;28;20229;-71
2022/06/09 08:02:24;;;;;;;13.60;2.33;;;28.70;76.70;;;;;;5063767;28;20275;-72
2022/06/09 08:04:51;;;;;;;4.25;1.73;;;28.70;75.80;;;;;;5053672;28;20200;-70
2022/06/09 08:07:18;;;;;;;3.28;1.60;;;28.70;75.90;;;;;;5065675;28;20704;-68
2022/06/09 08:09:45;;;;;;;4.88;2.33;;;28.80;76.00;;;;;;5071862;28;20744;-67
2022/06/09 08:12:12;;;;;;;5.82;2.03;;;28.80;76.20;;;;;;5071491;28;20207;-70
2022/06/09 08:14:40;;;;;;;2.70;1.80;;;28.80;76.40;;;;;;5071693;28;20206;-69
2022/06/09 08:17:09;;;;;;;7.57;2.20;;;28.90;76.30;;;;;;5072415;28;20277;-67
2022/06/09 08:19:36;;;;;;;11.40;2.20;;;28.90;75.70;;;;;;5076953;28;20297;-68
2022/06/09 08:22:04;;;;;;;3.75;2.20;;;28.90;75.80;;;;;;5071306;28;20235;-68
2022/06/09 08:24:33;;;;;;;16.75;2.67;;;28.90;72.70;;;;;;5072337;28;20294;-67
2022/06/09 08:27:00;;;;;;;10.20;1.95;;;28.80;73.40;;;;;;5068300;28;20218;-68
2022/06/09 08:29:27;;;;;;;5.32;1.90;;;28.80;73.20;;;;;;5081086;28;20250;-69
2022/06/09 08:31:56;;;;;;;4.50;1.80;;;28.80;73.90;;;;;;5078882;28;20349;-67
2022/06/09 08:34:23;;;;;;;1.75;1.55;;;28.80;74.90;;;;;;5070966;28;20264;-68
2022/06/09 08:36:50;;;;;;;5.60;1.88;;;28.80;75.10;;;;;;5054311;28;20196;-67
2022/06/09 08:39:17;;;;;;;2.75;1.60;;;28.70;75.10;;;;;;5053591;28;20240;-69
2022/06/09 08:41:54;;;;;;;4.75;1.75;;;28.70;75.30;;;;;;5071209;28;20200;-67
2022/06/09 08:44:30;;;;;;;16.20;2.58;;;28.80;73.50;;;;;;5062672;28;20580;-68
2022/06/09 08:47:07;;;;;;;8.23;2.40;;;28.90;73.40;;;;;;5060542;28;20221;-66
2022/06/09 08:49:57;;;;;;;12.65;2.10;;;28.90;73.30;;;;;;5055465;28;20211;-67
2022/06/09 08:52:36;;;;;;;2.85;1.80;;;28.90;72.00;;;;;;5061599;28;20291;-69
2022/06/09 08:55:18;;;;;;;4.28;1.67;;;28.80;72.80;;;;;;5067405;28;20195;-66
2022/06/09 08:57:46;;;;;;;15.77;2.90;;;28.80;72.50;;;;;;5060850;28;20600;-69
2022/06/09 09:00:16;;;;;;;33.33;3.95;;;28.90;73.00;;;;;;5055682;28;20210;-69
2022/06/09 09:02:49;;;;;;;9.70;1.85;;;28.90;73.20;;;;;;5060403;28;20227;-67
2022/06/09 09:05:20;;;;;;;4.53;2.13;;;29.00;74.00;;;;;;5074435;28;20221;-67
2022/06/09 09:07:50;;;;;;;7.15;3.67;;;29.20;73.90;;;;;;5064084;28;20747;-68
2022/06/09 09:10:21;;;;;;;5.35;1.77;;;29.20;70.40;;;;;;5068126;28;20203;-68
2022/06/09 09:13:10;;;;;;;2.13;1.60;;;29.20;70.40;;;;;;5068722;28;20242;-68
2022/06/09 09:15:42;;;;;;;2.42;1.63;;;29.10;70.60;;;;;;5060396;28;20273;-67
2022/06/09 09:18:21;;;;;;;4.05;2.00;;;29.10;69.90;;;;;;5070118;28;20275;-69
2022/06/09 09:20:57;;;;;;;10.25;1.95;;;29.20;70.60;;;;;;5055144;28;20628;-67
2022/06/09 09:23:31;;;;;;;1.90;1.70;;;29.10;70.40;;;;;;5054301;28;20586;-68
2022/06/09 09:26:06;;;;;;;5.15;1.73;;;29.00;70.60;;;;;;5054359;28;20195;-68
2022/06/09 09:28:43;;;;;;;3.38;1.45;;;29.10;70.90;;;;;;5053927;28;20218;-67
2022/06/09 09:31:22;;;;;;;3.28;1.60;;;29.20;70.60;;;;;;5054580;28;20698;-70
2022/06/09 09:33:51;;;;;;;22.50;2.72;;;29.20;70.40;;;;;;5053794;28;20267;-68
2022/06/09 09:36:22;;;;;;;4.40;1.48;;;29.20;69.00;;;;;;5054598;28;20216;-68
2022/06/09 09:38:54;;;;;;;2.80;1.80;;;29.20;69.40;;;;;;5054022;28;20239;-68
2022/06/09 09:41:31;;;;;;;3.42;1.80;;;29.30;69.10;;;;;;5054258;28;20196;-67
2022/06/09 09:43:58;;;;;;;2.75;1.77;;;29.40;69.80;;;;;;5054339;28;20192;-69
2022/06/09 09:46:30;;;;;;;1.60;1.50;;;29.50;69.30;;;;;;5053931;28;20714;-67
2022/06/09 09:49:01;;;;;;;8.13;2.08;;;29.50;68.70;;;;;;5053826;28;20296;-68
2022/06/09 09:51:37;;;;;;;3.60;1.90;;;29.60;69.00;;;;;;5053388;28;20591;-67
2022/06/09 09:54:15;;;;;;;4.22;1.98;;;29.70;68.20;;;;;;5053881;28;20204;-67
2022/06/09 09:56:42;;;;;;;2.15;1.70;;;29.80;68.70;;;;;;5054012;28;20709;-67
2022/06/09 09:59:23;;;;;;;5.03;1.88;;;29.90;68.30;;;;;;5053018;28;20228;-66
2022/06/09 10:10:26;;;;;;;4.40;2.22;;;29.70;68.10;;;;;;5068027;28;20526;-69
2022/06/09 10:12:55;;;;;;;4.22;2.00;;;29.60;70.10;;;;;;5073570;28;20198;-70
2022/06/09 10:15:24;;;;;;;21.75;3.55;;;29.60;69.20;;;;;;5073698;28;20227;-70
2022/06/09 10:17:59;;;;;;;10.90;2.13;;;29.60;68.00;;;;;;5073417;28;20219;-69
2022/06/09 10:20:35;;;;;;;3.42;1.73;;;29.60;67.50;;;;;;5057781;28;20189;-71
2022/06/09 10:23:24;;;;;;;10.98;2.80;;;29.60;67.10;;;;;;5056355;28;20228;-69
2022/06/09 10:25:56;;;;;;;2.70;1.50;;;29.50;66.10;;;;;;5052904;28;20238;-68
2022/06/09 10:28:33;;;;;;;4.38;2.03;;;29.60;66.50;;;;;;5056338;28;20224;-69
2022/06/09 10:31:06;;;;;;;10.32;2.05;;;29.60;69.00;;;;;;5069648;28;20193;-69
2022/06/09 10:33:38;;;;;;;3.55;1.75;;;29.60;68.40;;;;;;5073469;28;20665;-68
2022/06/09 10:36:14;;;;;;;3.60;1.95;;;29.60;68.90;;;;;;5070034;28;20601;-70
2022/06/09 10:38:47;;;;;;;18.17;2.88;;;29.60;65.00;;;;;;5069914;28;20568;-69
2022/06/09 10:41:17;;;;;;;2.15;1.70;;;29.50;67.10;;;;;;5073211;28;20291;-68
2022/06/09 10:43:49;;;;;;;39.63;5.13;;;29.70;67.60;;;;;;5066379;28;20238;-71
2022/06/09 10:46:28;;;;;;;5.05;2.20;;;29.70;67.40;;;;;;5053638;28;20226;-69
2022/06/09 10:57:38;;;;;;;2.35;1.90;;;30.30;67.70;;;;;;5052515;28;20231;-68
2022/06/09 11:00:11;;;;;;;5.82;1.88;;;30.30;69.60;;;;;;5061812;28;20208;-69
2022/06/09 11:02:40;;;;;;;1.67;1.55;;;30.20;69.80;;;;;;5079811;28;20389;-67
2022/06/09 11:05:08;;;;;;;3.15;2.05;;;30.20;67.70;;;;;;5064642;28;20684;-70
2022/06/09 11:07:48;;;;;;;8.15;2.05;;;30.20;66.80;;;;;;5072718;28;20316;-71
2022/06/09 11:10:26;;;;;;;3.85;2.30;;;30.30;67.90;;;;;;5071883;28;20832;-68
2022/06/09 11:13:16;;;;;;;4.45;2.03;;;30.40;67.20;;;;;;5072766;28;20196;-69
2022/06/09 11:15:57;;;;;;;2.00;1.80;;;30.50;67.10;;;;;;5061904;28;20640;-70
2022/06/09 11:18:33;;;;;;;46.90;5.63;;;30.50;66.10;;;;;;5066274;28;20638;-69
2022/06/09 11:21:11;;;;;;;5.72;2.10;;;30.50;68.80;;;;;;5060497;28;20197;-70
2022/06/09 11:24:00;;;;;;;2.45;1.88;;;30.40;68.80;;;;;;5052577;28;20193;-71
2022/06/09 11:26:37;;;;;;;4.28;1.80;;;30.30;68.80;;;;;;5051893;28;20225;-71
2022/06/09 11:29:15;;;;;;;2.17;1.70;;;30.20;68.40;;;;;;5052555;28;20220;-70
2022/06/09 11:31:57;;;;;;;4.25;1.90;;;30.10;68.60;;;;;;5053075;28;20429;-71
2022/06/09 11:34:51;;;;;;;5.85;2.20;;;30.00;68.70;;;;;;5058044;28;20273;-69
2022/06/09 11:37:45;;;;;;;3.17;2.00;;;30.00;69.00;;;;;;5053962;28;20229;-70
2022/06/09 11:40:25;;;;;;;2.25;1.73;;;30.00;67.60;;;;;;5064529;28;20297;-72
2022/06/09 11:43:09;;;;;;;18.38;2.95;;;30.00;68.20;;;;;;5054975;28;20219;-73
2022/06/09 11:45:42;;;;;;;17.65;2.42;;;30.00;68.40;;;;;;5053754;28;20260;-70
2022/06/09 11:48:19;;;;;;;9.10;2.00;;;30.10;70.10;;;;;;5052421;28;20209;-71
2022/06/09 11:50:47;;;;;;;2.72;1.88;;;30.10;70.60;;;;;;5051947;28;20320;-72
2022/06/09 11:53:19;;;;;;;8.90;2.30;;;30.20;69.40;;;;;;5053464;28;20284;-69
2022/06/09 11:56:00;;;;;;;5.38;2.00;;;30.20;69.40;;;;;;5052162;28;20270;-71
2022/06/09 11:58:57;;;;;;;2.60;1.65;;;30.40;70.20;;;;;;5070785;28;20189;-70
2022/06/09 12:01:45;;;;;;;13.27;2.28;;;30.30;69.00;;;;;;5070612;28;20300;-69
2022/06/09 12:04:37;;;;;;;16.23;2.55;;;30.10;69.30;;;;;;5052129;28;20233;-71
2022/06/09 12:07:27;;;;;;;4.60;2.55;;;30.10;70.10;;;;;;5053609;28;20205;-70
2022/06/09 12:10:18;;;;;;;5.07;1.88;;;30.00;71.60;;;;;;5052071;28;20200;-72
2022/06/09 12:13:06;;;;;;;3.67;2.00;;;30.00;70.60;;;;;;5051178;28;20240;-71
2022/06/09 12:15:46;;;;;;;45.05;5.03;;;29.80;71.30;;;;;;5053167;28;20636;-71
2022/06/09 12:18:34;;;;;;;11.98;2.38;;;29.80;71.90;;;;;;5052620;28;20290;-70
2022/06/09 12:21:08;;;;;;;3.08;1.83;;;29.70;72.20;;;;;;5053495;28;20626;-72
2022/06/09 12:23:38;;;;;;;29.85;4.60;;;29.60;72.00;;;;;;5052893;28;20670;-71
2022/06/09 12:26:44;;;;;;;16.95;2.65;;;29.60;71.90;;;;;;5052655;28;20239;-70
2022/06/09 12:29:44;;;;;;;6.55;2.70;;;29.50;71.90;;;;;;5052220;28;20306;-71
2022/06/09 12:32:45;;;;;;;24.65;2.75;;;29.50;72.40;;;;;;5049746;28;20219;-73
2022/06/09 12:35:22;;;;;;;4.53;1.92;;;29.40;74.00;;;;;;5053226;28;20301;-73
2022/06/09 12:37:57;;;;;;;11.07;2.88;;;29.20;74.30;;;;;;5051576;28;20192;-72
2022/06/09 12:40:29;;;;;;;5.13;2.30;;;29.10;74.20;;;;;;5051842;28;20200;-70
2022/06/09 12:42:58;;;;;;;20.88;2.72;;;29.10;74.30;;;;;;5051949;28;20246;-70
2022/06/09 12:45:29;;;;;;;24.63;2.63;;;29.10;73.80;;;;;;5052475;28;20294;-72
2022/06/09 12:47:58;;;;;;;3.88;2.47;;;29.20;74.20;;;;;;5052272;28;20219;-72
2022/06/09 12:50:35;;;;;;;27.08;3.78;;;29.20;74.30;;;;;;5051405;28;20204;-72
2022/06/09 12:53:04;;;;;;;17.42;2.95;;;29.40;74.40;;;;;;5051990;28;20630;-70
2022/06/09 12:55:34;;;;;;;5.85;2.10;;;29.40;74.40;;;;;;5051737;28;20204;-69
2022/06/09 12:58:06;;;;;;;12.70;2.15;;;29.60;73.30;;;;;;5051196;28;20214;-70
2022/06/09 13:00:37;;;;;;;2.67;1.80;;;29.60;72.80;;;;;;5051530;28;20185;-70
2022/06/09 13:03:15;;;;;;;3.08;1.80;;;29.70;71.80;;;;;;5050468;28;21071;-69
2022/06/09 13:05:42;;;;;;;5.90;1.73;;;29.70;70.20;;;;;;5051248;28;20284;-71
2022/06/09 13:08:16;;;;;;;4.22;1.77;;;29.70;69.50;;;;;;5051284;28;20229;-69
2022/06/09 13:10:47;;;;;;;3.53;2.00;;;29.70;70.40;;;;;;5051350;28;20233;-68
2022/06/09 13:13:20;;;;;;;7.80;2.25;;;29.60;71.30;;;;;;5050938;28;20304;-70
2022/06/09 13:15:57;;;;;;;8.05;1.90;;;29.50;71.90;;;;;;5050875;28;20196;-70
2022/06/09 13:18:28;;;;;;;2.63;1.83;;;29.40;70.60;;;;;;5050658;28;20265;-70
2022/06/09 13:21:00;;;;;;;2.40;2.03;;;29.30;70.60;;;;;;5050783;28;20192;-71
2022/06/09 13:23:30;;;;;;;4.88;2.00;;;29.30;71.10;;;;;;5051150;28;20284;-72
2022/06/09 13:25:57;;;;;;;5.30;1.90;;;29.20;70.30;;;;;;5090737;28;20273;-71
2022/06/09 13:28:39;;;;;;;4.60;2.03;;;29.20;70.10;;;;;;5090534;28;20245;-71
2022/06/09 13:31:24;;;;;;;7.93;2.20;;;29.10;70.30;;;;;;5089616;28;20709;-71